Time;durP1;ratioP1;P1;durP2;ratioP2;P2;SDS_P1;SDS_P2;PMS_P1;PMS_P2;Temp;Humidity;BMP_temperature;BMP_pressure;BME280_temperature;BME280_humidity;BME280_pressure;Samples;Min_cycle;Max_cycle;Signal;HPM_P1;HPM_P2
2024/03/10 00:01:06;;;;;;;21.00;15.50;;;;;;;;;;5073221;28;20730;-70
2024/03/10 00:03:33;;;;;;;21.67;14.40;;;;;;;;;;5073067;28;20442;-70
2024/03/10 00:06:00;;;;;;;22.90;16.23;;;;;;;;;;5073007;28;20442;-70
2024/03/10 00:08:27;;;;;;;23.80;15.87;;;;;;;;;;5072916;28;20281;-69
2024/03/10 00:10:54;;;;;;;23.07;16.53;;;;;;;;;;5073110;28;20530;-70
2024/03/10 00:13:22;;;;;;;19.85;15.00;;;;;;;;;;5073067;28;20534;-69
2024/03/10 00:15:49;;;;;;;21.20;15.50;;;;;;;;;;5072837;28;20705;-70
2024/03/10 00:18:17;;;;;;;24.90;16.00;;;;;;;;;;5072855;28;20566;-70
2024/03/10 00:20:45;;;;;;;23.88;15.40;;;;;;;;;;5072874;28;20811;-70
2024/03/10 00:23:12;;;;;;;24.00;15.20;;;;;;;;;;5073029;28;20197;-69
2024/03/10 00:25:43;;;;;;;22.90;14.38;;;;;;;;;;5072972;28;20189;-70
2024/03/10 00:28:11;;;;;;;35.65;16.30;;;;;;;;;;5072937;28;20557;-69
2024/03/10 00:30:39;;;;;;;22.70;15.67;;;;;;;;;;5072809;28;20276;-69
2024/03/10 00:33:06;;;;;;;22.53;14.90;;;;;;;;;;5072776;28;20454;-70
2024/03/10 00:35:33;;;;;;;20.58;15.43;;;;;;;;;;5072606;28;20812;-69
2024/03/10 00:38:00;;;;;;;20.60;15.60;;;;;;;;;;5072821;28;20213;-69
2024/03/10 00:40:27;;;;;;;20.42;15.10;;;;;;;;;;5072697;28;21058;-69
2024/03/10 00:42:54;;;;;;;25.40;14.83;;;;;;;;;;5072776;28;20185;-70
2024/03/10 00:45:22;;;;;;;21.02;15.38;;;;;;;;;;5072646;28;20530;-70
2024/03/10 00:47:54;;;;;;;21.83;15.27;;;;;;;;;;5072505;28;20247;-69
2024/03/10 00:50:21;;;;;;;22.15;14.57;;;;;;;;;;5072820;28;20545;-69
2024/03/10 00:52:48;;;;;;;22.67;14.90;;;;;;;;;;5072704;28;20203;-70
2024/03/10 00:55:15;;;;;;;20.55;15.18;;;;;;;;;;5072611;28;20272;-70
2024/03/10 00:57:42;;;;;;;20.30;14.30;;;;;;;;;;5072470;28;20213;-69
2024/03/10 01:00:10;;;;;;;18.77;14.15;;;;;;;;;;5072480;28;20195;-70
2024/03/10 01:02:37;;;;;;;20.60;15.38;;;;;;;;;;5072410;28;20284;-69
2024/03/10 01:05:06;;;;;;;31.43;18.90;;;;;;;;;;5072600;28;20596;-70
2024/03/10 01:07:34;;;;;;;22.03;14.80;;;;;;;;;;5072984;28;21013;-69
2024/03/10 01:10:01;;;;;;;18.50;14.20;;;;;;;;;;5076268;28;20873;-69
2024/03/10 01:12:28;;;;;;;23.65;15.90;;;;;;;;;;5076194;28;20522;-69
2024/03/10 01:14:55;;;;;;;18.80;13.33;;;;;;;;;;5076057;28;20189;-69
2024/03/10 01:17:23;;;;;;;24.00;15.60;;;;;;;;;;5075838;28;20471;-69
2024/03/10 01:19:50;;;;;;;23.77;15.18;;;;;;;;;;5076151;28;20193;-69
2024/03/10 01:22:18;;;;;;;23.02;15.77;;;;;;;;;;5076066;28;20621;-70
2024/03/10 01:24:45;;;;;;;20.63;15.18;;;;;;;;;;5075884;28;20641;-70
2024/03/10 01:27:12;;;;;;;26.73;15.23;;;;;;;;;;5075820;28;20276;-69
2024/03/10 01:29:39;;;;;;;21.57;14.83;;;;;;;;;;5075770;28;20203;-69
2024/03/10 01:32:06;;;;;;;20.93;14.47;;;;;;;;;;5076022;28;20536;-70
2024/03/10 01:34:34;;;;;;;22.20;15.97;;;;;;;;;;5075844;28;20447;-70
2024/03/10 01:37:01;;;;;;;22.45;15.38;;;;;;;;;;5075728;28;20560;-69
2024/03/10 01:39:29;;;;;;;22.45;15.32;;;;;;;;;;5075419;28;20240;-70
2024/03/10 01:41:57;;;;;;;24.10;15.02;;;;;;;;;;5075637;28;20234;-70
2024/03/10 01:44:24;;;;;;;20.63;14.82;;;;;;;;;;5075489;28;20189;-69
2024/03/10 01:46:51;;;;;;;21.90;14.95;;;;;;;;;;5075661;28;20199;-69
2024/03/10 01:49:19;;;;;;;22.02;15.50;;;;;;;;;;5075597;28;20284;-69
2024/03/10 01:51:47;;;;;;;22.02;15.00;;;;;;;;;;5075566;28;20189;-70
2024/03/10 01:54:15;;;;;;;22.08;16.00;;;;;;;;;;5075455;28;20196;-69
2024/03/10 01:56:43;;;;;;;23.73;15.25;;;;;;;;;;5075322;28;20656;-69
2024/03/10 01:59:12;;;;;;;19.42;14.98;;;;;;;;;;5075394;28;20217;-69
2024/03/10 02:01:39;;;;;;;21.75;15.02;;;;;;;;;;5075390;28;20242;-69
2024/03/10 02:04:09;;;;;;;26.20;16.05;;;;;;;;;;5075452;28;20706;-69
2024/03/10 02:06:36;;;;;;;23.60;15.07;;;;;;;;;;5075339;28;20190;-69
2024/03/10 02:09:03;;;;;;;21.88;14.25;;;;;;;;;;5075246;28;20597;-69
2024/03/10 02:11:30;;;;;;;25.45;15.90;;;;;;;;;;5075042;28;20200;-69
2024/03/10 02:13:59;;;;;;;23.10;14.87;;;;;;;;;;5075013;28;20724;-69
2024/03/10 02:16:26;;;;;;;22.52;15.80;;;;;;;;;;5075140;28;20447;-70
2024/03/10 02:18:53;;;;;;;24.05;15.88;;;;;;;;;;5074012;28;20217;-69
2024/03/10 02:21:21;;;;;;;24.23;16.92;;;;;;;;;;5074612;28;20276;-69
2024/03/10 02:23:55;;;;;;;24.90;17.02;;;;;;;;;;5074826;28;20288;-69
2024/03/10 02:26:32;;;;;;;22.65;14.85;;;;;;;;;;5075005;28;20572;-69
2024/03/10 02:29:14;;;;;;;27.98;17.30;;;;;;;;;;5074929;28;20231;-69
2024/03/10 02:48:11;;;;;;;22.92;16.95;;;;;;;;;;5074347;28;20187;-69
2024/03/10 02:50:38;;;;;;;21.90;15.63;;;;;;;;;;5074357;28;20228;-69
2024/03/10 02:53:05;;;;;;;22.17;15.73;;;;;;;;;;5074242;28;20239;-69
2024/03/10 02:55:33;;;;;;;25.10;17.90;;;;;;;;;;5074330;28;20264;-69
2024/03/10 02:58:03;;;;;;;22.67;16.10;;;;;;;;;;5074167;28;20550;-69
2024/03/10 03:00:31;;;;;;;27.25;17.52;;;;;;;;;;5074041;28;20721;-69
2024/03/10 03:02:58;;;;;;;24.65;16.17;;;;;;;;;;5074139;28;20576;-69
2024/03/10 03:05:26;;;;;;;22.50;16.27;;;;;;;;;;5073984;28;20677;-70
2024/03/10 03:07:53;;;;;;;29.83;17.58;;;;;;;;;;5074168;28;20583;-69
2024/03/10 03:10:20;;;;;;;25.55;17.08;;;;;;;;;;5074070;28;20193;-69
2024/03/10 03:12:47;;;;;;;25.42;17.40;;;;;;;;;;5073964;28;20201;-69
2024/03/10 03:15:16;;;;;;;27.75;18.25;;;;;;;;;;5073810;28;20276;-69
2024/03/10 03:17:43;;;;;;;27.35;18.45;;;;;;;;;;5073637;28;20652;-70
2024/03/10 03:20:15;;;;;;;24.60;17.45;;;;;;;;;;5073591;28;20253;-69
2024/03/10 03:22:42;;;;;;;25.65;18.00;;;;;;;;;;5073582;28;20645;-69
2024/03/10 03:25:11;;;;;;;28.48;18.58;;;;;;;;;;5073703;28;20631;-69
2024/03/10 03:27:38;;;;;;;27.05;18.38;;;;;;;;;;5073676;28;20189;-69
2024/03/10 03:30:06;;;;;;;30.65;19.60;;;;;;;;;;5073209;28;20280;-69
2024/03/10 03:32:34;;;;;;;27.98;18.42;;;;;;;;;;5073346;28;20197;-69
2024/03/10 03:35:01;;;;;;;30.38;20.35;;;;;;;;;;5073572;28;20276;-69
2024/03/10 03:37:28;;;;;;;27.77;19.20;;;;;;;;;;5073533;28;20195;-69
2024/03/10 03:39:55;;;;;;;29.77;18.90;;;;;;;;;;5073194;28;20335;-69
2024/03/10 03:42:22;;;;;;;29.30;19.52;;;;;;;;;;5073392;28;20548;-69
2024/03/10 03:44:49;;;;;;;26.35;18.75;;;;;;;;;;5073299;28;20405;-69
2024/03/10 03:47:17;;;;;;;28.13;18.23;;;;;;;;;;5073150;28;20189;-69
2024/03/10 03:49:45;;;;;;;26.67;19.33;;;;;;;;;;5073383;28;20548;-69
2024/03/10 03:52:12;;;;;;;28.83;19.30;;;;;;;;;;5073325;28;20185;-69
2024/03/10 03:54:41;;;;;;;32.45;20.38;;;;;;;;;;5073224;28;20189;-70
2024/03/10 03:57:08;;;;;;;27.70;19.23;;;;;;;;;;5073198;28;20221;-69
2024/03/10 03:59:36;;;;;;;35.72;20.10;;;;;;;;;;5072964;28;20217;-69
2024/03/10 04:02:03;;;;;;;30.05;19.50;;;;;;;;;;5073310;28;20190;-69
2024/03/10 04:04:30;;;;;;;28.60;20.75;;;;;;;;;;5073139;28;20594;-69
2024/03/10 04:06:59;;;;;;;31.00;21.20;;;;;;;;;;5073195;28;20262;-69
2024/03/10 04:09:26;;;;;;;34.28;20.65;;;;;;;;;;5073040;28;20196;-69
2024/03/10 04:11:53;;;;;;;33.95;21.88;;;;;;;;;;5072951;28;20217;-69
2024/03/10 04:14:20;;;;;;;35.03;21.35;;;;;;;;;;5072865;28;20196;-69
2024/03/10 04:16:47;;;;;;;31.40;20.75;;;;;;;;;;5073022;28;20189;-69
2024/03/10 04:19:14;;;;;;;30.55;20.17;;;;;;;;;;5072783;28;20771;-69
2024/03/10 04:21:41;;;;;;;29.15;20.42;;;;;;;;;;5072924;28;20708;-69
2024/03/10 04:24:10;;;;;;;30.65;20.77;;;;;;;;;;5072872;28;20189;-69
2024/03/10 04:26:37;;;;;;;37.17;21.65;;;;;;;;;;5072866;28;20193;-69
2024/03/10 04:29:05;;;;;;;33.85;21.88;;;;;;;;;;5072720;28;20197;-69
2024/03/10 04:31:33;;;;;;;29.80;20.05;;;;;;;;;;5072926;28;20189;-69
2024/03/10 04:34:00;;;;;;;33.05;22.10;;;;;;;;;;5072847;28;20564;-69
2024/03/10 04:36:28;;;;;;;37.05;22.67;;;;;;;;;;5072805;28;20602;-70
2024/03/10 04:38:55;;;;;;;33.78;22.20;;;;;;;;;;5072523;28;20557;-70
2024/03/10 04:41:24;;;;;;;35.05;20.65;;;;;;;;;;5072561;28;20185;-69
2024/03/10 04:43:51;;;;;;;32.20;22.20;;;;;;;;;;5075678;28;20189;-70
2024/03/10 04:46:18;;;;;;;34.33;22.10;;;;;;;;;;5076779;28;20185;-69
2024/03/10 04:48:46;;;;;;;32.78;22.90;;;;;;;;;;5076677;28;20204;-69
2024/03/10 04:51:14;;;;;;;37.40;21.70;;;;;;;;;;5076544;28;20197;-69
2024/03/10 04:53:42;;;;;;;33.95;22.40;;;;;;;;;;5076454;28;20193;-69
2024/03/10 04:56:10;;;;;;;34.38;20.85;;;;;;;;;;5076446;28;20193;-69
2024/03/10 04:58:39;;;;;;;37.22;22.58;;;;;;;;;;5076505;28;20209;-69
2024/03/10 05:01:08;;;;;;;35.65;24.88;;;;;;;;;;5076462;28;20189;-69
2024/03/10 05:03:36;;;;;;;37.92;24.85;;;;;;;;;;5076342;28;20229;-69
2024/03/10 05:06:03;;;;;;;35.85;23.95;;;;;;;;;;5076310;28;20189;-69
2024/03/10 05:08:30;;;;;;;34.55;22.00;;;;;;;;;;5076118;28;20196;-69
2024/03/10 05:10:57;;;;;;;34.33;22.90;;;;;;;;;;5076350;28;20191;-69
2024/03/10 05:13:24;;;;;;;36.88;23.65;;;;;;;;;;5076224;28;20275;-69
2024/03/10 05:15:52;;;;;;;34.88;23.38;;;;;;;;;;5076342;28;20714;-69
2024/03/10 05:18:19;;;;;;;33.67;22.00;;;;;;;;;;5076056;28;20193;-69
2024/03/10 05:20:46;;;;;;;39.45;23.85;;;;;;;;;;5075850;28;20209;-69
2024/03/10 05:23:13;;;;;;;37.00;22.77;;;;;;;;;;5075802;28;20281;-69
2024/03/10 05:25:40;;;;;;;34.63;22.55;;;;;;;;;;5076042;28;20193;-70
2024/03/10 05:28:09;;;;;;;43.08;23.65;;;;;;;;;;5076013;28;20704;-69
2024/03/10 05:30:36;;;;;;;34.55;21.52;;;;;;;;;;5075831;28;20228;-69
2024/03/10 05:33:06;;;;;;;32.67;21.83;;;;;;;;;;5075755;28;20212;-69
2024/03/10 05:35:33;;;;;;;32.75;22.67;;;;;;;;;;5075646;28;20591;-69
2024/03/10 05:38:00;;;;;;;42.35;23.65;;;;;;;;;;5075833;28;20189;-70
2024/03/10 05:40:27;;;;;;;40.33;23.42;;;;;;;;;;5075404;28;20690;-69
2024/03/10 05:42:54;;;;;;;37.55;23.73;;;;;;;;;;5075634;28;20192;-69
2024/03/10 05:45:21;;;;;;;38.67;24.75;;;;;;;;;;5075640;28;20602;-69
2024/03/10 05:47:48;;;;;;;36.17;23.90;;;;;;;;;;5075564;28;20190;-70
2024/03/10 05:50:17;;;;;;;34.95;22.50;;;;;;;;;;5075366;28;20185;-69
2024/03/10 05:52:44;;;;;;;36.90;23.73;;;;;;;;;;5075577;28;20204;-70
2024/03/10 05:55:11;;;;;;;37.40;24.30;;;;;;;;;;5075134;28;20196;-69
2024/03/10 05:57:38;;;;;;;38.72;23.98;;;;;;;;;;5075443;28;20276;-69
2024/03/10 06:00:13;;;;;;;36.20;24.27;;;;;;;;;;5075237;28;20668;-70
2024/03/10 06:02:40;;;;;;;37.75;24.13;;;;;;;;;;5075186;28;20262;-69
2024/03/10 06:05:08;;;;;;;35.25;23.48;;;;;;;;;;5075219;28;20232;-69
2024/03/10 06:07:36;;;;;;;36.83;23.38;;;;;;;;;;5075109;28;20280;-69
2024/03/10 06:10:05;;;;;;;38.65;24.27;;;;;;;;;;5075070;28;20645;-69
2024/03/10 06:12:32;;;;;;;33.30;23.27;;;;;;;;;;5075011;28;20212;-69
2024/03/10 06:14:59;;;;;;;34.67;23.33;;;;;;;;;;5074962;28;20580;-69
2024/03/10 06:17:31;;;;;;;37.35;23.83;;;;;;;;;;5075205;28;20595;-69
2024/03/10 06:25:29;;;;;;;32.47;23.00;;;;;;;;;;5074870;28;20231;-69
2024/03/10 06:27:57;;;;;;;36.88;21.90;;;;;;;;;;5074956;28;20189;-69
2024/03/10 06:30:24;;;;;;;36.90;23.15;;;;;;;;;;5074896;28;20211;-69
2024/03/10 06:32:51;;;;;;;35.15;22.80;;;;;;;;;;5074805;28;20704;-69
2024/03/10 06:35:19;;;;;;;30.45;21.70;;;;;;;;;;5074692;28;20553;-69
2024/03/10 06:37:48;;;;;;;36.90;22.35;;;;;;;;;;5074562;28;20204;-69
2024/03/10 06:40:15;;;;;;;32.78;22.25;;;;;;;;;;5074213;28;20271;-69
2024/03/10 06:42:42;;;;;;;32.42;22.23;;;;;;;;;;5074696;28;20304;-69
2024/03/10 06:45:09;;;;;;;34.30;22.80;;;;;;;;;;5074540;28;20620;-69
2024/03/10 06:47:36;;;;;;;34.45;22.13;;;;;;;;;;5074543;28;20185;-69
2024/03/10 06:50:04;;;;;;;33.22;21.23;;;;;;;;;;5074345;28;20601;-69
2024/03/10 06:52:32;;;;;;;35.08;23.52;;;;;;;;;;5074186;28;20189;-69
2024/03/10 06:55:03;;;;;;;31.60;21.92;;;;;;;;;;5074257;28;20519;-69
2024/03/10 06:57:29;;;;;;;35.85;22.20;;;;;;;;;;5074072;28;20674;-69
2024/03/10 06:59:57;;;;;;;34.10;22.58;;;;;;;;;;5074027;28;20216;-69
2024/03/10 07:02:26;;;;;;;35.13;23.73;;;;;;;;;;5074064;28;20189;-69
2024/03/10 07:04:55;;;;;;;34.22;21.77;;;;;;;;;;5073570;28;20280;-69
2024/03/10 07:07:22;;;;;;;34.28;21.05;;;;;;;;;;5073636;28;20194;-69
2024/03/10 07:09:50;;;;;;;34.20;21.70;;;;;;;;;;5074108;28;20220;-69
2024/03/10 07:12:18;;;;;;;33.25;21.55;;;;;;;;;;5073950;28;20185;-69
2024/03/10 07:14:45;;;;;;;31.20;21.33;;;;;;;;;;5073783;28;20196;-69
2024/03/10 07:17:12;;;;;;;38.00;23.45;;;;;;;;;;5073832;28;20193;-69
2024/03/10 07:19:41;;;;;;;33.73;20.73;;;;;;;;;;5073562;28;20209;-69
2024/03/10 07:22:08;;;;;;;32.67;22.20;;;;;;;;;;5073928;28;20448;-69
2024/03/10 07:24:37;;;;;;;30.88;21.00;;;;;;;;;;5073735;28;20276;-69
2024/03/10 07:27:04;;;;;;;30.48;21.98;;;;;;;;;;5073702;28;20212;-69
2024/03/10 07:29:32;;;;;;;33.45;22.40;;;;;;;;;;5073546;28;20283;-69
2024/03/10 07:32:00;;;;;;;30.77;21.43;;;;;;;;;;5073471;28;20276;-69
2024/03/10 07:34:27;;;;;;;34.90;23.30;;;;;;;;;;5073366;28;20505;-69
2024/03/10 07:36:54;;;;;;;31.37;22.37;;;;;;;;;;5073613;28;20538;-69
2024/03/10 07:39:21;;;;;;;33.53;22.50;;;;;;;;;;5073228;28;20490;-69
2024/03/10 07:41:48;;;;;;;31.80;22.93;;;;;;;;;;5073422;28;20857;-69
2024/03/10 07:44:16;;;;;;;33.67;22.17;;;;;;;;;;5073281;28;20443;-69
2024/03/10 07:46:44;;;;;;;30.50;20.50;;;;;;;;;;5073212;28;20819;-69
2024/03/10 07:49:11;;;;;;;30.90;21.77;;;;;;;;;;5073411;28;20439;-69
2024/03/10 07:51:38;;;;;;;32.03;22.80;;;;;;;;;;5073101;28;21002;-69
2024/03/10 07:54:05;;;;;;;32.30;22.27;;;;;;;;;;5073228;28;20439;-69
2024/03/10 07:56:33;;;;;;;28.77;20.60;;;;;;;;;;5073260;28;20824;-69
2024/03/10 07:59:00;;;;;;;29.07;20.70;;;;;;;;;;5073058;28;20440;-69
2024/03/10 08:01:27;;;;;;;30.07;21.20;;;;;;;;;;5072971;28;20486;-69
2024/03/10 08:03:55;;;;;;;32.60;21.03;;;;;;;;;;5073189;28;20468;-69
2024/03/10 08:06:22;;;;;;;27.73;20.87;;;;;;;;;;5073122;28;20501;-69
2024/03/10 08:08:52;;;;;;;28.10;21.40;;;;;;;;;;5072848;28;20927;-69
2024/03/10 08:11:18;;;;;;;28.97;21.00;;;;;;;;;;5072963;28;20443;-69
2024/03/10 08:13:45;;;;;;;26.43;19.10;;;;;;;;;;5072796;28;20958;-69
2024/03/10 08:16:13;;;;;;;29.53;20.80;;;;;;;;;;5072990;28;20474;-69
2024/03/10 08:18:40;;;;;;;30.30;19.87;;;;;;;;;;5072840;28;20993;-68
2024/03/10 08:21:10;;;;;;;25.30;19.30;;;;;;;;;;5072954;28;20487;-70
2024/03/10 08:23:37;;;;;;;34.97;19.50;;;;;;;;;;5072830;28;20447;-70
2024/03/10 08:26:04;;;;;;;28.07;20.43;;;;;;;;;;5072819;28;20443;-69
2024/03/10 08:28:31;;;;;;;30.53;19.93;;;;;;;;;;5072747;28;20451;-69
2024/03/10 08:30:58;;;;;;;28.80;20.03;;;;;;;;;;5072870;28;20479;-69
2024/03/10 08:33:25;;;;;;;27.30;20.70;;;;;;;;;;5072762;28;20451;-69
2024/03/10 08:35:53;;;;;;;29.53;20.17;;;;;;;;;;5072701;28;20563;-70
2024/03/10 08:38:21;;;;;;;27.23;18.83;;;;;;;;;;5072737;28;20443;-69
2024/03/10 08:40:48;;;;;;;25.13;19.37;;;;;;;;;;5072281;28;20982;-69
2024/03/10 08:43:15;;;;;;;28.33;19.37;;;;;;;;;;5072857;28;20864;-70
2024/03/10 08:45:42;;;;;;;26.30;18.93;;;;;;;;;;5072720;28;20471;-70
2024/03/10 08:48:10;;;;;;;26.53;19.43;;;;;;;;;;5072710;28;20450;-69
2024/03/10 08:50:37;;;;;;;26.93;18.43;;;;;;;;;;5072594;28;20798;-70
2024/03/10 08:53:05;;;;;;;26.00;18.70;;;;;;;;;;5072532;28;20894;-70
2024/03/10 08:55:35;;;;;;;26.50;20.10;;;;;;;;;;5072452;28;20444;-69
2024/03/10 08:58:03;;;;;;;26.10;19.13;;;;;;;;;;5072899;28;20501;-70
2024/03/10 09:00:30;;;;;;;24.37;18.00;;;;;;;;;;5072256;28;20667;-70
2024/03/10 09:02:57;;;;;;;24.57;18.90;;;;;;;;;;5072467;28;20451;-70
2024/03/10 09:05:24;;;;;;;28.80;18.93;;;;;;;;;;5072411;28;20880;-70
2024/03/10 09:07:51;;;;;;;24.13;17.60;;;;;;;;;;5072278;28;20455;-69
2024/03/10 09:10:23;;;;;;;24.83;18.03;;;;;;;;;;5072531;28;20443;-70
2024/03/10 09:12:51;;;;;;;23.50;18.50;;;;;;;;;;5072483;28;20870;-69
2024/03/10 09:15:19;;;;;;;26.03;18.80;;;;;;;;;;5072430;28;20498;-70
2024/03/10 09:17:46;;;;;;;25.90;19.47;;;;;;;;;;5072401;28;20447;-70
2024/03/10 09:20:13;;;;;;;25.50;18.73;;;;;;;;;;5072252;28;20532;-70
2024/03/10 09:22:40;;;;;;;25.13;17.83;;;;;;;;;;5072241;28;20451;-69
2024/03/10 09:25:12;;;;;;;24.50;17.50;;;;;;;;;;5072396;28;20443;-70
2024/03/10 09:27:40;;;;;;;25.67;18.70;;;;;;;;;;5072297;28;20871;-70
2024/03/10 09:30:09;;;;;;;26.47;19.57;;;;;;;;;;5075266;28;20483;-70
2024/03/10 09:32:36;;;;;;;27.00;20.20;;;;;;;;;;5075786;28;20538;-70
2024/03/10 09:35:03;;;;;;;22.80;18.20;;;;;;;;;;5075686;28;20536;-69
2024/03/10 09:37:32;;;;;;;26.93;17.07;;;;;;;;;;5075883;28;20543;-70
2024/03/10 09:39:59;;;;;;;26.67;19.50;;;;;;;;;;5075417;28;20472;-70
2024/03/10 09:42:27;;;;;;;23.83;18.17;;;;;;;;;;5075735;28;20447;-70
2024/03/10 09:44:54;;;;;;;24.23;18.43;;;;;;;;;;5075662;28;20534;-70
2024/03/10 09:47:23;;;;;;;26.87;20.03;;;;;;;;;;5075472;28;20653;-70
2024/03/10 09:49:50;;;;;;;27.37;19.50;;;;;;;;;;5075435;28;20452;-70
2024/03/10 09:52:18;;;;;;;23.70;19.47;;;;;;;;;;5075646;28;20798;-70
2024/03/10 09:54:45;;;;;;;25.13;18.80;;;;;;;;;;5075667;28;20455;-70
2024/03/10 09:57:12;;;;;;;25.63;18.43;;;;;;;;;;5075200;28;21033;-70
2024/03/10 09:59:42;;;;;;;26.47;19.33;;;;;;;;;;5075232;28;20943;-70
2024/03/10 10:02:15;;;;;;;28.20;19.90;;;;;;;;;;5075104;28;20514;-69
2024/03/10 10:04:53;;;;;;;25.63;18.73;;;;;;;;;;5075242;28;20443;-70
2024/03/10 10:07:23;;;;;;;23.70;18.93;;;;;;;;;;5075048;28;20443;-70
2024/03/10 10:09:56;;;;;;;26.13;20.43;;;;;;;;;;5075043;28;20441;-70
2024/03/10 10:12:22;;;;;;;25.57;19.70;;;;;;;;;;5075038;28;20439;-70
2024/03/10 10:14:51;;;;;;;24.10;19.80;;;;;;;;;;5074972;28;20552;-70
2024/03/10 10:17:19;;;;;;;26.27;20.43;;;;;;;;;;5075089;28;20475;-70
2024/03/10 10:19:50;;;;;;;24.70;20.30;;;;;;;;;;5075019;28;20451;-70
2024/03/10 10:22:17;;;;;;;28.03;19.53;;;;;;;;;;5074793;28;20540;-70
2024/03/10 10:24:45;;;;;;;28.57;21.30;;;;;;;;;;5074904;28;20568;-70
2024/03/10 10:27:13;;;;;;;30.00;21.27;;;;;;;;;;5074668;28;20497;-70
2024/03/10 10:29:48;;;;;;;29.93;21.90;;;;;;;;;;5074887;28;20444;-70
2024/03/10 10:32:15;;;;;;;31.50;22.03;;;;;;;;;;5074789;28;20567;-70
2024/03/10 10:34:42;;;;;;;27.57;20.30;;;;;;;;;;5074678;28;20522;-70
2024/03/10 10:37:12;;;;;;;30.73;22.53;;;;;;;;;;5074665;28;20439;-70
2024/03/10 10:39:40;;;;;;;29.53;21.60;;;;;;;;;;5073784;28;20896;-70
2024/03/10 10:42:07;;;;;;;29.03;21.30;;;;;;;;;;5073995;28;20479;-70
2024/03/10 10:44:34;;;;;;;28.53;21.73;;;;;;;;;;5074470;28;20840;-69
2024/03/10 10:47:01;;;;;;;28.00;21.53;;;;;;;;;;5074344;28;20720;-70
2024/03/10 10:49:29;;;;;;;32.93;22.30;;;;;;;;;;5074257;28;20530;-70
2024/03/10 10:51:56;;;;;;;27.07;21.03;;;;;;;;;;5074608;28;20443;-70
2024/03/10 10:54:25;;;;;;;28.70;20.67;;;;;;;;;;5074099;28;20446;-70
2024/03/10 10:56:55;;;;;;;28.57;20.47;;;;;;;;;;5074242;28;20554;-70
2024/03/10 10:59:24;;;;;;;27.20;21.43;;;;;;;;;;5074140;28;20455;-70
2024/03/10 11:01:52;;;;;;;26.70;20.27;;;;;;;;;;5074055;28;20570;-70
2024/03/10 11:04:24;;;;;;;38.60;29.13;;;;;;;;;;5074034;28;20497;-70
2024/03/10 11:06:55;;;;;;;26.80;20.33;;;;;;;;;;5073897;28;20489;-70
2024/03/10 11:09:30;;;;;;;28.80;21.43;;;;;;;;;;5074035;28;20526;-70
2024/03/10 11:11:57;;;;;;;25.80;20.60;;;;;;;;;;5073967;28;20447;-70
2024/03/10 11:14:26;;;;;;;27.20;19.83;;;;;;;;;;5073844;28;20530;-70
2024/03/10 11:17:08;;;;;;;26.10;19.40;;;;;;;;;;5073767;28;20811;-70
2024/03/10 11:19:34;;;;;;;25.50;20.33;;;;;;;;;;5073600;28;20526;-70
2024/03/10 11:22:02;;;;;;;27.87;21.43;;;;;;;;;;5073688;28;20824;-69
2024/03/10 11:24:31;;;;;;;27.07;20.27;;;;;;;;;;5073749;28;20768;-70
2024/03/10 11:27:16;;;;;;;22.47;18.43;;;;;;;;;;5073618;28;20555;-70
2024/03/10 11:29:43;;;;;;;26.20;19.90;;;;;;;;;;5073470;28;20447;-70
2024/03/10 11:32:30;;;;;;;21.97;19.20;;;;;;;;;;5073657;28;20446;-70
2024/03/10 11:34:57;;;;;;;24.70;18.10;;;;;;;;;;5073511;28;20443;-70
2024/03/10 11:37:24;;;;;;;18.43;15.37;;;;;;;;;;5073441;28;20450;-70
2024/03/10 11:39:52;;;;;;;18.80;14.60;;;;;;;;;;5073224;28;20581;-70
2024/03/10 11:42:19;;;;;;;15.67;13.60;;;;;;;;;;5073106;28;21135;-70
2024/03/10 11:44:47;;;;;;;17.80;14.30;;;;;;;;;;5073476;28;20469;-70
2024/03/10 11:47:15;;;;;;;17.33;14.93;;;;;;;;;;5073297;28;20455;-70
2024/03/10 11:49:42;;;;;;;16.37;14.03;;;;;;;;;;5073203;28;20440;-70
2024/03/10 11:52:12;;;;;;;15.90;13.50;;;;;;;;;;5072979;28;20439;-70
2024/03/10 11:54:39;;;;;;;17.87;15.10;;;;;;;;;;5073521;28;20439;-70
2024/03/10 11:57:07;;;;;;;18.40;14.53;;;;;;;;;;5073090;28;20927;-70
2024/03/10 11:59:36;;;;;;;18.60;14.53;;;;;;;;;;5072966;28;20923;-70
2024/03/10 12:02:03;;;;;;;17.70;14.40;;;;;;;;;;5073094;28;20570;-70
2024/03/10 12:04:32;;;;;;;16.07;13.83;;;;;;;;;;5072952;28;20558;-70
2024/03/10 12:06:59;;;;;;;16.37;13.70;;;;;;;;;;5073015;28;20476;-70
2024/03/10 12:09:27;;;;;;;14.27;12.23;;;;;;;;;;5072923;28;20475;-70
2024/03/10 12:11:54;;;;;;;18.47;14.70;;;;;;;;;;5073057;28;20564;-70
2024/03/10 12:14:22;;;;;;;16.23;12.90;;;;;;;;;;5073127;28;20530;-70
2024/03/10 12:16:49;;;;;;;18.13;13.73;;;;;;;;;;5072939;28;20542;-70
2024/03/10 12:19:17;;;;;;;17.80;14.27;;;;;;;;;;5072894;28;20491;-70
2024/03/10 12:21:46;;;;;;;14.50;13.00;;;;;;;;;;5072684;28;20475;-70
2024/03/10 12:24:13;;;;;;;15.30;13.40;;;;;;;;;;5072865;28;20447;-71
2024/03/10 12:26:40;;;;;;;16.87;14.17;;;;;;;;;;5072859;28;20782;-70
2024/03/10 12:29:07;;;;;;;17.67;14.30;;;;;;;;;;5072748;28;20534;-71
2024/03/10 12:31:38;;;;;;;16.37;12.80;;;;;;;;;;5072325;28;20462;-70
2024/03/10 12:34:07;;;;;;;16.47;13.03;;;;;;;;;;5072509;28;20923;-69
2024/03/10 12:36:35;;;;;;;14.43;12.70;;;;;;;;;;5072597;28;20485;-70
2024/03/10 12:39:06;;;;;;;14.77;13.03;;;;;;;;;;5072525;28;20474;-70
2024/03/10 12:41:33;;;;;;;15.57;12.97;;;;;;;;;;5072664;28;20502;-70
2024/03/10 12:44:01;;;;;;;16.90;13.40;;;;;;;;;;5072610;28;20534;-70
2024/03/10 12:46:28;;;;;;;14.87;13.27;;;;;;;;;;5072498;28;20443;-70
2024/03/10 12:48:57;;;;;;;15.37;13.50;;;;;;;;;;5072949;28;20807;-70
2024/03/10 12:51:24;;;;;;;16.67;13.70;;;;;;;;;;5072390;28;20458;-70
2024/03/10 12:53:51;;;;;;;15.03;13.40;;;;;;;;;;5072512;28;20530;-70
2024/03/10 12:56:18;;;;;;;15.03;13.43;;;;;;;;;;5072362;28;20451;-70
2024/03/10 12:58:45;;;;;;;13.73;12.20;;;;;;;;;;5072329;28;20530;-70
2024/03/10 13:01:12;;;;;;;14.47;13.03;;;;;;;;;;5072299;28;20546;-70
2024/03/10 13:03:39;;;;;;;18.57;13.27;;;;;;;;;;5073415;28;20443;-70
2024/03/10 13:06:07;;;;;;;14.20;12.60;;;;;;;;;;5076424;28;20537;-70
2024/03/10 13:08:34;;;;;;;14.73;12.90;;;;;;;;;;5076278;28;20443;-70
2024/03/10 13:11:01;;;;;;;12.43;11.20;;;;;;;;;;5076195;28;20538;-70
2024/03/10 13:13:29;;;;;;;14.80;13.03;;;;;;;;;;5076187;28;20450;-70
2024/03/10 13:15:56;;;;;;;15.57;12.60;;;;;;;;;;5076003;28;20534;-70
2024/03/10 13:18:23;;;;;;;15.53;12.97;;;;;;;;;;5076204;28;20443;-70
2024/03/10 13:20:52;;;;;;;17.40;12.90;;;;;;;;;;5076102;28;20471;-70
2024/03/10 13:23:22;;;;;;;14.20;11.97;;;;;;;;;;5076059;28;20488;-70
2024/03/10 13:25:49;;;;;;;15.00;12.83;;;;;;;;;;5075868;28;20954;-70
2024/03/10 13:28:17;;;;;;;14.90;12.80;;;;;;;;;;5075743;28;20445;-70
2024/03/10 13:30:44;;;;;;;15.97;12.70;;;;;;;;;;5075974;28;20497;-70
2024/03/10 13:33:11;;;;;;;14.00;11.70;;;;;;;;;;5075864;28;20443;-70
2024/03/10 13:35:39;;;;;;;14.40;11.50;;;;;;;;;;5075866;28;20530;-70
2024/03/10 13:38:06;;;;;;;13.40;11.87;;;;;;;;;;5075794;28;20443;-70
2024/03/10 13:40:34;;;;;;;15.63;12.40;;;;;;;;;;5075454;28;20899;-71
2024/03/10 13:43:01;;;;;;;12.83;10.70;;;;;;;;;;5075421;28;20479;-70
2024/03/10 13:45:28;;;;;;;15.20;12.70;;;;;;;;;;5075615;28;20543;-71
2024/03/10 13:47:55;;;;;;;12.60;10.37;;;;;;;;;;5075662;28;20447;-70
2024/03/10 13:50:24;;;;;;;12.33;10.87;;;;;;;;;;5075614;28;20448;-70
2024/03/10 13:52:51;;;;;;;11.77;10.47;;;;;;;;;;5075383;28;20505;-70
2024/03/10 13:55:20;;;;;;;12.63;11.00;;;;;;;;;;5075366;28;20530;-70
2024/03/10 13:57:48;;;;;;;13.80;11.30;;;;;;;;;;5075518;28;20439;-70
2024/03/10 14:00:18;;;;;;;14.50;10.93;;;;;;;;;;5075203;28;20968;-71
2024/03/10 14:02:48;;;;;;;16.60;12.20;;;;;;;;;;5075364;28;20885;-70
2024/03/10 14:05:15;;;;;;;14.37;11.80;;;;;;;;;;5075323;28;20443;-70
2024/03/10 14:07:42;;;;;;;12.67;10.63;;;;;;;;;;5075088;28;20943;-70
2024/03/10 14:10:10;;;;;;;12.90;11.40;;;;;;;;;;5075105;28;20448;-70
2024/03/10 14:12:38;;;;;;;13.93;11.33;;;;;;;;;;5074944;28;20447;-70
2024/03/10 14:15:09;;;;;;;13.10;11.67;;;;;;;;;;5074914;28;20806;-70
2024/03/10 14:17:36;;;;;;;13.33;10.60;;;;;;;;;;5075058;28;20453;-70
2024/03/10 14:20:04;;;;;;;13.57;11.27;;;;;;;;;;5075049;28;20479;-71
2024/03/10 14:22:31;;;;;;;13.60;10.87;;;;;;;;;;5074807;28;20479;-70
2024/03/10 14:24:58;;;;;;;12.50;10.40;;;;;;;;;;5074756;28;20444;-71
2024/03/10 14:27:25;;;;;;;16.40;10.43;;;;;;;;;;5074613;28;20523;-70
2024/03/10 14:29:52;;;;;;;12.80;11.30;;;;;;;;;;5074695;28;20544;-70
2024/03/10 14:32:22;;;;;;;11.50;9.80;;;;;;;;;;5074783;28;20526;-71
2024/03/10 14:34:49;;;;;;;14.13;10.57;;;;;;;;;;5075055;28;20443;-70
2024/03/10 14:37:17;;;;;;;16.90;12.33;;;;;;;;;;5074588;28;20446;-70
2024/03/10 14:39:44;;;;;;;16.60;11.43;;;;;;;;;;5074556;28;20869;-71
2024/03/10 14:42:12;;;;;;;14.17;12.17;;;;;;;;;;5074525;28;20478;-70